createdAt,value
2022-07-29T00:01:04.003Z,17.66
2022-07-29T00:03:32.015Z,18.27
2022-07-29T00:06:00.880Z,17.80
2022-07-29T00:08:28.982Z,17.60
2022-07-29T00:10:57.011Z,17.53
2022-07-29T00:13:32.179Z,17.92
2022-07-29T00:16:04.368Z,18.13
2022-07-29T00:18:33.164Z,17.87
2022-07-29T00:21:01.369Z,17.84
2022-07-29T00:23:30.718Z,18.04
2022-07-29T00:25:59.565Z,18.00
2022-07-29T00:28:28.933Z,18.52
2022-07-29T00:30:56.907Z,18.09
2022-07-29T00:33:24.869Z,17.98
2022-07-29T00:35:51.929Z,17.54
2022-07-29T00:38:22.076Z,17.48
2022-07-29T00:40:50.274Z,17.74
2022-07-29T00:43:21.587Z,17.79
2022-07-29T00:45:50.953Z,17.41
2022-07-29T00:48:19.018Z,17.62
2022-07-29T00:50:46.987Z,18.22
2022-07-29T00:53:15.391Z,18.53
2022-07-29T00:55:43.437Z,19.05
2022-07-29T00:58:14.015Z,19.10
2022-07-29T01:00:42.592Z,18.69
2022-07-29T01:03:14.222Z,18.28
2022-07-29T01:05:50.117Z,18.80
2022-07-29T01:08:21.368Z,17.99
2022-07-29T01:10:50.073Z,17.85
2022-07-29T01:13:19.784Z,18.10
2022-07-29T01:15:57.343Z,18.38
2022-07-29T01:18:35.691Z,17.78
2022-07-29T01:21:29.573Z,17.45
2022-07-29T01:24:32.124Z,17.44
2022-07-29T01:27:12.473Z,17.82
2022-07-29T01:29:55.572Z,17.75
2022-07-29T01:32:31.002Z,17.36
2022-07-29T01:35:12.388Z,17.38
2022-07-29T01:37:52.636Z,17.39
2022-07-29T01:40:26.282Z,17.32
2022-07-29T01:42:59.121Z,17.43
2022-07-29T01:45:38.961Z,17.05
2022-07-29T01:48:15.294Z,17.48
2022-07-29T01:50:52.307Z,17.85
2022-07-29T01:53:37.697Z,17.88
2022-07-29T01:56:08.470Z,17.67
2022-07-29T01:58:40.748Z,17.12
2022-07-29T02:01:12.891Z,17.11
2022-07-29T02:03:46.976Z,17.25
2022-07-29T02:06:23.075Z,17.37
2022-07-29T02:08:53.093Z,17.18
2022-07-29T02:11:21.212Z,17.06
2022-07-29T02:13:51.328Z,16.83
2022-07-29T02:16:26.320Z,16.69
2022-07-29T02:18:57.509Z,16.68
2022-07-29T02:21:29.023Z,17.03
2022-07-29T02:24:01.357Z,17.13
2022-07-29T02:26:32.356Z,17.33
2022-07-29T02:29:03.150Z,17.03
2022-07-29T02:31:37.392Z,16.74
2022-07-29T02:34:10.370Z,16.72
2022-07-29T02:36:39.977Z,17.30
2022-07-29T02:39:10.942Z,17.04
2022-07-29T02:41:45.598Z,17.31
2022-07-29T02:44:16.891Z,17.46
2022-07-29T02:46:53.742Z,17.45
2022-07-29T02:49:38.707Z,17.07
2022-07-29T02:52:14.549Z,17.01
2022-07-29T02:54:51.090Z,16.77
2022-07-29T02:57:28.649Z,17.02
2022-07-29T03:00:01.006Z,17.00
2022-07-29T03:02:35.488Z,16.48
2022-07-29T03:05:05.971Z,16.18
2022-07-29T03:07:36.008Z,16.22
2022-07-29T03:10:06.299Z,16.14
2022-07-29T03:12:42.819Z,16.15
2022-07-29T03:15:12.187Z,16.75
2022-07-29T03:17:42.580Z,16.52
2022-07-29T03:20:13.484Z,16.84
2022-07-29T03:22:44.641Z,17.35
2022-07-29T03:25:14.503Z,17.46
2022-07-29T03:27:42.678Z,16.52
2022-07-29T03:30:13.104Z,17.48
2022-07-29T03:32:53.005Z,16.72
2022-07-29T03:35:21.410Z,16.35
2022-07-29T03:37:49.610Z,16.38
2022-07-29T03:40:24.473Z,16.90
2022-07-29T03:42:56.509Z,16.85
2022-07-29T03:45:27.305Z,16.87
2022-07-29T03:48:02.987Z,16.91
2022-07-29T03:50:32.810Z,17.07
2022-07-29T03:53:01.076Z,16.85
2022-07-29T03:55:34.413Z,16.97
2022-07-29T03:58:04.090Z,17.44
2022-07-29T04:00:34.377Z,17.75
2022-07-29T04:03:06.157Z,17.16
2022-07-29T04:05:39.449Z,17.56
2022-07-29T04:08:07.983Z,17.33
2022-07-29T04:10:36.090Z,17.06
2022-07-29T04:13:03.999Z,16.95
2022-07-29T04:15:32.048Z,17.15
2022-07-29T04:18:00.819Z,17.47
2022-07-29T04:20:30.063Z,17.70
2022-07-29T04:22:57.913Z,17.96
2022-07-29T04:25:25.711Z,17.90
2022-07-29T04:28:02.721Z,17.52
2022-07-29T04:30:32.564Z,18.92
2022-07-29T04:33:01.739Z,19.32
2022-07-29T04:35:37.959Z,19.44
2022-07-29T04:38:15.537Z,18.97
2022-07-29T04:40:43.932Z,18.92
2022-07-29T04:43:12.552Z,18.70
2022-07-29T04:45:42.167Z,18.95
2022-07-29T04:48:10.328Z,18.94
2022-07-29T04:50:41.929Z,19.34
2022-07-29T04:53:09.930Z,18.55
2022-07-29T04:55:38.982Z,17.90
2022-07-29T04:58:07.178Z,18.11
2022-07-29T05:00:35.643Z,18.39
2022-07-29T05:03:03.553Z,17.83
2022-07-29T05:05:31.845Z,18.84
2022-07-29T05:08:01.115Z,18.64
2022-07-29T05:10:29.758Z,19.10
2022-07-29T05:12:57.597Z,18.80
2022-07-29T05:15:25.646Z,18.95
2022-07-29T05:17:53.467Z,18.53
2022-07-29T05:20:27.019Z,18.24
2022-07-29T05:22:55.056Z,18.81
2022-07-29T05:25:24.662Z,18.56
2022-07-29T05:28:12.516Z,19.36
2022-07-29T05:30:40.795Z,19.27
2022-07-29T05:33:08.865Z,18.60
2022-07-29T05:36:00.288Z,18.83
2022-07-29T05:38:29.101Z,19.32
2022-07-29T05:41:00.872Z,18.57
2022-07-29T05:43:29.415Z,18.59
2022-07-29T05:45:58.056Z,18.61
2022-07-29T05:48:26.659Z,18.97
2022-07-29T05:50:55.483Z,19.10
2022-07-29T05:53:24.080Z,19.55
2022-07-29T05:55:53.944Z,19.28
2022-07-29T05:58:23.327Z,18.93
2022-07-29T06:00:51.390Z,18.87
2022-07-29T06:03:19.433Z,19.69
2022-07-29T06:05:47.458Z,20.19
2022-07-29T06:08:15.488Z,19.61
2022-07-29T06:10:44.124Z,19.90
2022-07-29T06:13:12.333Z,19.99
2022-07-29T06:15:41.804Z,19.81
2022-07-29T06:18:11.106Z,20.33
2022-07-29T06:20:39.216Z,20.18
2022-07-29T06:23:07.859Z,20.13
2022-07-29T06:25:37.639Z,19.59
2022-07-29T06:28:06.290Z,20.42
2022-07-29T06:30:34.496Z,19.98
2022-07-29T06:33:04.839Z,20.20
2022-07-29T06:35:39.013Z,20.37
2022-07-29T06:38:30.812Z,20.64
2022-07-29T06:41:02.172Z,20.65
2022-07-29T06:43:34.856Z,20.30
2022-07-29T06:46:05.821Z,20.27
2022-07-29T06:48:37.055Z,20.21
2022-07-29T06:51:06.090Z,20.03
2022-07-29T06:53:35.242Z,20.69
2022-07-29T06:56:05.208Z,20.62
2022-07-29T06:58:33.422Z,20.35
2022-07-29T07:01:05.370Z,21.03
2022-07-29T07:03:35.602Z,21.23
2022-07-29T07:06:04.365Z,20.38
2022-07-29T07:08:32.519Z,21.05
2022-07-29T07:11:00.587Z,21.93
2022-07-29T07:13:29.179Z,21.85
2022-07-29T07:15:58.476Z,22.39
2022-07-29T07:18:26.537Z,23.02
2022-07-29T07:20:56.016Z,22.59
2022-07-29T07:23:24.082Z,21.22
2022-07-29T07:25:52.152Z,21.28
2022-07-29T07:28:24.662Z,21.51
2022-07-29T07:30:54.433Z,21.75
2022-07-29T07:33:22.581Z,21.72
2022-07-29T07:35:50.807Z,22.79
2022-07-29T07:38:20.174Z,22.28
2022-07-29T07:40:48.346Z,22.88
2022-07-29T07:43:16.450Z,23.26
2022-07-29T07:45:44.496Z,23.09
2022-07-29T07:48:12.456Z,22.53
2022-07-29T07:50:40.815Z,23.07
2022-07-29T07:53:08.954Z,22.71
2022-07-29T07:58:31.286Z,23.80
2022-07-29T08:00:59.396Z,23.26
2022-07-29T08:03:27.445Z,23.15
2022-07-29T08:05:55.412Z,23.69
2022-07-29T08:08:23.545Z,23.79
2022-07-29T08:10:56.851Z,24.15
2022-07-29T08:13:29.025Z,23.49
2022-07-29T08:16:01.236Z,23.72
2022-07-29T08:18:31.825Z,23.96
2022-07-29T08:21:00.717Z,23.59
2022-07-29T08:23:47.822Z,23.91
2022-07-29T08:26:21.088Z,24.47
2022-07-29T08:28:51.236Z,24.34
2022-07-29T08:31:19.748Z,24.30
2022-07-29T08:33:47.888Z,25.02
2022-07-29T08:36:15.887Z,24.97
2022-07-29T08:38:43.868Z,24.48
2022-07-29T08:41:12.021Z,24.62
2022-07-29T08:43:42.799Z,25.16
2022-07-29T08:46:11.082Z,24.97
2022-07-29T08:48:40.847Z,25.05
2022-07-29T08:51:10.460Z,25.85
2022-07-29T08:53:39.017Z,25.06
2022-07-29T08:56:08.135Z,24.94
2022-07-29T08:58:38.222Z,24.97
2022-07-29T09:01:12.445Z,25.31
2022-07-29T09:03:42.693Z,25.44
2022-07-29T09:06:11.654Z,25.09
2022-07-29T09:08:39.717Z,25.50
2022-07-29T09:11:08.373Z,25.53
2022-07-29T09:13:36.932Z,25.86
2022-07-29T09:16:09.605Z,25.54
2022-07-29T09:18:40.328Z,25.91
2022-07-29T09:21:29.076Z,26.34
2022-07-29T09:24:08.804Z,26.63
2022-07-29T09:26:39.040Z,26.39
2022-07-29T09:29:14.895Z,26.15
2022-07-29T09:31:47.392Z,25.57
2022-07-29T09:34:18.488Z,25.73
2022-07-29T09:36:50.584Z,25.76
2022-07-29T09:39:30.840Z,26.08
2022-07-29T09:42:02.619Z,26.04
2022-07-29T09:44:44.805Z,26.01
2022-07-29T09:47:14.735Z,25.41
2022-07-29T09:49:55.557Z,25.40
2022-07-29T09:52:23.574Z,25.58
2022-07-29T09:54:51.758Z,25.26
2022-07-29T09:57:31.152Z,25.43
2022-07-29T10:00:03.158Z,25.56
2022-07-29T10:02:35.761Z,25.44
2022-07-29T10:05:08.161Z,26.03
2022-07-29T10:07:51.874Z,26.51
2022-07-29T10:10:24.946Z,27.33
2022-07-29T10:13:03.093Z,25.74
2022-07-29T10:15:39.979Z,26.12
2022-07-29T10:18:10.240Z,26.57
2022-07-29T10:20:39.642Z,26.43
2022-07-29T10:23:08.211Z,25.79
2022-07-29T10:25:36.155Z,25.88
2022-07-29T10:28:04.335Z,25.98
2022-07-29T10:30:33.531Z,26.08
2022-07-29T10:33:43.242Z,25.65
2022-07-29T10:36:46.569Z,25.68
2022-07-29T10:39:41.725Z,25.42
2022-07-29T10:42:33.484Z,25.85
2022-07-29T10:45:05.635Z,25.90
2022-07-29T10:47:35.158Z,26.40
2022-07-29T10:50:07.280Z,27.04
2022-07-29T10:52:55.475Z,27.43
2022-07-29T10:55:35.985Z,27.05
2022-07-29T10:58:18.938Z,26.88
2022-07-29T11:00:49.392Z,26.46
2022-07-29T11:07:11.319Z,26.50
2022-07-29T11:09:40.454Z,26.34
2022-07-29T11:12:52.106Z,26.94
2022-07-29T11:15:24.873Z,27.24
2022-07-29T11:18:14.959Z,27.61
2022-07-29T11:20:46.693Z,27.58
2022-07-29T11:23:26.209Z,27.78
2022-07-29T11:29:20.755Z,26.95
2022-07-29T11:31:56.661Z,26.90
2022-07-29T11:34:30.200Z,27.65
2022-07-29T11:37:27.988Z,27.56
2022-07-29T11:40:18.239Z,27.73
2022-07-29T11:42:48.200Z,27.49
2022-07-29T11:48:28.693Z,27.32
2022-07-29T11:51:00.461Z,27.36
2022-07-29T11:53:32.524Z,28.21
2022-07-29T11:56:03.412Z,28.32
2022-07-29T11:58:32.817Z,27.89
2022-07-29T12:01:04.712Z,28.53
2022-07-29T12:03:35.709Z,28.28
2022-07-29T12:06:13.070Z,28.08
2022-07-29T12:08:44.940Z,27.23
2022-07-29T12:11:21.777Z,27.46
2022-07-29T12:13:51.135Z,27.83
2022-07-29T12:16:26.092Z,28.11
2022-07-29T12:18:59.805Z,28.46
2022-07-29T12:21:29.082Z,27.88
2022-07-29T12:24:09.050Z,27.99
2022-07-29T12:26:40.357Z,28.07
2022-07-29T12:29:14.751Z,28.08
2022-07-29T12:31:58.006Z,27.84
2022-07-29T12:34:30.273Z,27.88
2022-07-29T12:36:58.982Z,28.44
2022-07-29T12:39:28.931Z,27.70
2022-07-29T12:42:03.860Z,27.67
2022-07-29T12:44:47.298Z,28.06
2022-07-29T12:47:17.207Z,28.38
2022-07-29T12:49:45.252Z,28.97
2022-07-29T12:52:27.779Z,28.66
2022-07-29T12:54:55.850Z,28.97
2022-07-29T12:57:24.961Z,28.94
2022-07-29T13:00:10.260Z,29.10
2022-07-29T13:02:41.996Z,29.01
2022-07-29T13:05:12.023Z,28.91
2022-07-29T13:07:55.274Z,28.93
2022-07-29T13:10:26.761Z,28.51
2022-07-29T13:13:06.282Z,28.90
2022-07-29T13:15:35.100Z,28.72
2022-07-29T13:18:06.073Z,28.97
2022-07-29T13:20:34.725Z,27.93
2022-07-29T13:23:02.959Z,28.82
2022-07-29T13:25:35.314Z,28.99
2022-07-29T13:28:03.185Z,29.12
2022-07-29T13:30:31.117Z,29.41
2022-07-29T13:32:58.955Z,28.88
2022-07-29T13:35:30.630Z,28.90
2022-07-29T13:37:58.473Z,29.09
2022-07-29T13:40:26.917Z,28.77
2022-07-29T13:42:54.883Z,28.33
2022-07-29T13:45:22.966Z,28.94
2022-07-29T13:47:50.900Z,29.10
2022-07-29T13:50:18.902Z,28.78
2022-07-29T13:52:49.333Z,29.02
2022-07-29T13:55:17.224Z,29.04
2022-07-29T13:57:45.092Z,29.26
2022-07-29T14:00:14.753Z,28.75
2022-07-29T14:02:42.849Z,28.84
2022-07-29T14:05:11.930Z,28.99
2022-07-29T14:07:40.637Z,29.32
2022-07-29T14:10:11.238Z,29.43
2022-07-29T14:12:39.906Z,29.41
2022-07-29T14:15:08.952Z,29.36
2022-07-29T14:17:36.996Z,29.28
2022-07-29T14:20:06.397Z,29.41
2022-07-29T14:22:36.874Z,29.70
2022-07-29T14:25:13.090Z,29.61
2022-07-29T14:27:43.979Z,29.76
2022-07-29T14:30:13.616Z,28.97
2022-07-29T14:32:41.595Z,28.42
2022-07-29T14:35:10.458Z,28.21
2022-07-29T14:37:40.503Z,28.54
2022-07-29T14:40:11.700Z,28.16
2022-07-29T14:42:40.366Z,29.17
2022-07-29T14:45:11.199Z,28.17
2022-07-29T14:47:40.366Z,28.62
2022-07-29T14:50:10.500Z,28.72
2022-07-29T14:52:39.023Z,28.37
2022-07-29T14:55:19.419Z,28.56
2022-07-29T14:57:49.078Z,28.17
2022-07-29T15:00:18.064Z,28.07
2022-07-29T15:03:01.461Z,27.86
2022-07-29T15:05:30.069Z,28.47
2022-07-29T15:07:57.906Z,28.69
2022-07-29T15:10:27.986Z,28.41
2022-07-29T15:12:56.074Z,28.41
2022-07-29T15:15:24.246Z,28.59
2022-07-29T15:17:52.140Z,29.16
2022-07-29T15:20:20.518Z,29.28
2022-07-29T15:22:48.392Z,29.23
2022-07-29T15:25:16.305Z,28.97
2022-07-29T15:27:49.726Z,28.94
2022-07-29T15:30:31.582Z,28.99
2022-07-29T15:33:01.068Z,28.39
2022-07-29T15:35:28.901Z,28.54
2022-07-29T15:37:56.753Z,29.04
2022-07-29T15:40:24.626Z,29.03
2022-07-29T15:42:53.891Z,29.10
2022-07-29T15:45:22.014Z,29.10
2022-07-29T15:47:49.879Z,28.35
2022-07-29T15:50:18.739Z,28.78
2022-07-29T15:52:46.969Z,28.97
2022-07-29T15:55:15.642Z,28.98
2022-07-29T15:57:43.833Z,28.63
2022-07-29T16:00:14.590Z,27.82
2022-07-29T16:02:42.403Z,27.73
2022-07-29T16:05:10.929Z,27.93
2022-07-29T16:07:38.843Z,27.67
2022-07-29T16:10:08.056Z,27.69
2022-07-29T16:12:35.889Z,27.54
2022-07-29T16:15:09.478Z,27.55
2022-07-29T16:17:39.089Z,27.85
2022-07-29T16:20:08.918Z,27.92
2022-07-29T16:22:38.426Z,27.90
2022-07-29T16:25:07.683Z,28.04
2022-07-29T16:27:37.960Z,28.01
2022-07-29T16:30:09.602Z,27.89
2022-07-29T16:32:39.811Z,28.11
2022-07-29T16:35:09.943Z,28.02
2022-07-29T16:37:38.284Z,27.48
2022-07-29T16:40:11.583Z,27.45
2022-07-29T16:42:47.709Z,27.57
2022-07-29T16:45:17.970Z,27.67
2022-07-29T16:47:47.315Z,27.47
2022-07-29T16:50:15.350Z,27.60
2022-07-29T16:52:43.301Z,27.37
2022-07-29T16:55:11.209Z,27.39
2022-07-29T16:57:39.194Z,27.41
2022-07-29T17:00:08.874Z,27.59
2022-07-29T17:02:38.713Z,27.77
2022-07-29T17:05:10.555Z,28.07
2022-07-29T17:07:38.392Z,28.15
2022-07-29T17:10:08.194Z,27.81
2022-07-29T17:12:37.306Z,27.82
2022-07-29T17:15:06.025Z,28.05
2022-07-29T17:17:39.132Z,28.05
2022-07-29T17:20:23.444Z,27.79
2022-07-29T17:22:51.379Z,27.55
2022-07-29T17:25:20.871Z,27.52
2022-07-29T17:27:49.695Z,27.61
2022-07-29T17:30:17.921Z,27.74
2022-07-29T17:32:45.982Z,27.32
2022-07-29T17:35:27.854Z,27.65
2022-07-29T17:37:57.416Z,27.23
2022-07-29T17:40:25.459Z,27.14
2022-07-29T17:42:53.340Z,27.15
2022-07-29T17:45:21.236Z,27.20
2022-07-29T17:47:49.038Z,27.17
2022-07-29T17:50:16.895Z,27.21
2022-07-29T17:52:44.802Z,27.12
2022-07-29T17:55:14.263Z,27.11
2022-07-29T17:57:42.129Z,27.17
2022-07-29T18:00:10.905Z,27.00
2022-07-29T18:02:38.928Z,27.26
2022-07-29T18:05:07.305Z,27.04
2022-07-29T18:07:35.157Z,27.12
2022-07-29T18:10:03.043Z,26.59
2022-07-29T18:12:32.205Z,26.74
2022-07-29T18:15:00.106Z,26.89
2022-07-29T18:17:35.085Z,27.00
2022-07-29T18:20:16.875Z,26.89
2022-07-29T18:22:44.811Z,26.47
2022-07-29T18:25:12.885Z,26.45
2022-07-29T18:27:42.040Z,26.70
2022-07-29T18:30:10.727Z,26.37
2022-07-29T18:32:38.577Z,26.27
2022-07-29T18:35:07.413Z,26.26
2022-07-29T18:38:01.579Z,26.40
2022-07-29T18:40:25.726Z,26.21
2022-07-29T18:42:55.661Z,26.48
2022-07-29T18:45:28.281Z,26.55
2022-07-29T18:47:56.900Z,26.44
2022-07-29T18:50:29.179Z,26.38
2022-07-29T18:52:58.776Z,26.76
2022-07-29T18:55:27.549Z,26.24
2022-07-29T18:57:57.471Z,26.68
2022-07-29T19:00:26.810Z,26.49
2022-07-29T19:02:54.773Z,26.23
2022-07-29T19:05:23.300Z,26.32
2022-07-29T19:07:51.203Z,26.04
2022-07-29T19:10:19.249Z,26.10
2022-07-29T19:12:47.059Z,25.92
2022-07-29T19:15:20.021Z,25.97
2022-07-29T19:17:48.675Z,25.98
2022-07-29T19:20:17.040Z,25.98
2022-07-29T19:22:45.011Z,26.05
2022-07-29T19:25:13.227Z,26.18
2022-07-29T19:27:43.081Z,26.14
2022-07-29T19:30:12.040Z,26.00
2022-07-29T19:32:41.201Z,25.86
2022-07-29T19:35:27.318Z,25.91
2022-07-29T19:37:57.142Z,26.03
2022-07-29T19:40:25.957Z,25.63
2022-07-29T19:42:54.472Z,25.63
2022-07-29T19:45:24.660Z,25.06
2022-07-29T19:47:59.038Z,25.27
2022-07-29T19:50:29.354Z,25.37
2022-07-29T19:52:57.305Z,25.08
2022-07-29T19:55:25.133Z,25.09
2022-07-29T19:57:53.703Z,25.28
2022-07-29T20:00:23.923Z,25.15
2022-07-29T20:02:53.607Z,25.00
2022-07-29T20:05:21.499Z,25.04
2022-07-29T20:07:56.073Z,24.81
2022-07-29T20:10:24.017Z,24.91
2022-07-29T20:12:53.917Z,24.83
2022-07-29T20:15:23.473Z,24.41
2022-07-29T20:17:56.891Z,24.57
2022-07-29T20:20:26.025Z,24.53
2022-07-29T20:22:54.134Z,24.19
2022-07-29T20:25:22.524Z,24.33
2022-07-29T20:27:52.486Z,24.33
2022-07-29T20:30:20.462Z,24.48
2022-07-29T20:32:49.313Z,24.50
2022-07-29T20:35:20.184Z,24.54
2022-07-29T20:37:52.547Z,24.46
2022-07-29T20:40:25.700Z,24.40
2022-07-29T20:42:53.695Z,24.68
2022-07-29T20:45:23.349Z,24.32
2022-07-29T20:47:52.687Z,24.11
2022-07-29T20:50:24.169Z,24.24
2022-07-29T20:52:53.191Z,24.36
2022-07-29T20:55:22.145Z,24.16
2022-07-29T20:57:50.110Z,24.06
2022-07-29T21:00:18.604Z,24.25
2022-07-29T21:02:47.428Z,24.24
2022-07-29T21:05:15.528Z,24.30
2022-07-29T21:07:44.827Z,23.89
2022-07-29T21:10:14.174Z,23.83
2022-07-29T21:12:42.711Z,23.81
2022-07-29T21:15:13.529Z,23.93
2022-07-29T21:17:46.857Z,23.72
2022-07-29T21:20:16.459Z,23.89
2022-07-29T21:22:46.672Z,23.94
2022-07-29T21:25:14.645Z,23.97
2022-07-29T21:28:00.080Z,23.85
2022-07-29T21:30:28.863Z,23.72
2022-07-29T21:32:56.940Z,24.08
2022-07-29T21:36:02.164Z,23.80
2022-07-29T21:38:16.333Z,23.94
2022-07-29T21:40:45.355Z,23.80
2022-07-29T21:43:13.798Z,23.90
2022-07-29T21:45:42.827Z,23.99
2022-07-29T21:48:11.724Z,23.75
2022-07-29T21:50:41.376Z,23.99
2022-07-29T21:53:11.125Z,23.78
2022-07-29T21:55:43.858Z,23.82
2022-07-29T21:58:12.278Z,23.72
2022-07-29T22:00:41.328Z,23.46
2022-07-29T22:03:09.664Z,23.62
2022-07-29T22:05:37.787Z,23.94
2022-07-29T22:08:06.451Z,23.84
2022-07-29T22:10:34.809Z,23.43
2022-07-29T22:13:04.710Z,23.39
2022-07-29T22:15:33.099Z,23.39
2022-07-29T22:18:01.123Z,23.41
2022-07-29T22:20:29.248Z,23.37
2022-07-29T22:22:57.288Z,23.25
2022-07-29T22:25:25.368Z,23.36
2022-07-29T22:27:53.440Z,23.61
2022-07-29T22:30:22.667Z,23.67
2022-07-29T22:32:50.600Z,23.52
2022-07-29T22:35:18.530Z,23.38
2022-07-29T22:37:46.502Z,23.37
2022-07-29T22:40:14.465Z,23.34
2022-07-29T22:42:42.466Z,23.13
2022-07-29T22:45:11.657Z,23.52
2022-07-29T22:47:48.215Z,23.02
2022-07-29T22:50:17.922Z,23.29
2022-07-29T22:52:46.938Z,23.28
2022-07-29T22:55:15.235Z,23.24
2022-07-29T22:57:43.405Z,23.33
2022-07-29T23:00:13.681Z,23.45
2022-07-29T23:02:43.021Z,23.83
2022-07-29T23:05:11.574Z,23.44
2022-07-29T23:07:39.573Z,23.43
2022-07-29T23:10:08.755Z,23.19
2022-07-29T23:12:37.154Z,23.14
2022-07-29T23:15:05.546Z,23.64
2022-07-29T23:17:36.532Z,23.27
2022-07-29T23:20:09.895Z,23.39
2022-07-29T23:22:39.023Z,23.30
2022-07-29T23:25:08.559Z,23.62
2022-07-29T23:27:36.535Z,23.49
2022-07-29T23:30:06.191Z,23.49
2022-07-29T23:32:34.350Z,22.83
2022-07-29T23:35:02.637Z,22.95
2022-07-29T23:37:32.278Z,23.09
2022-07-29T23:40:00.301Z,23.09
2022-07-29T23:42:28.327Z,23.00
2022-07-29T23:44:56.380Z,23.41
2022-07-29T23:47:24.443Z,23.43
2022-07-29T23:49:52.434Z,23.19
2022-07-29T23:52:20.345Z,23.07
2022-07-29T23:54:49.586Z,23.01
2022-07-29T23:57:17.523Z,22.75
2022-07-29T23:59:45.427Z,22.77
